Time;durP1;ratioP1;P1;durP2;ratioP2;P2;SDS_P1;SDS_P2;PMS_P1;PMS_P2;Temp;Humidity;BMP_temperature;BMP_pressure;BME280_temperature;BME280_humidity;BME280_pressure;Samples;Min_cycle;Max_cycle;Signal;HPM_P1;HPM_P2
2022/10/06 00:00:10;;;;;;;;;;;;;;;16.62;68.34;101686.53;1020556;29;685;-70
2022/10/06 00:01:02;;;;;;;;;;;;;;;16.61;69.71;101684.81;1020540;29;635;-70
2022/10/06 00:01:52;;;;;;;;;;;;;;;16.59;68.45;101695.69;1020614;29;622;-70
2022/10/06 00:02:42;;;;;;;;;;;;;;;16.64;68.72;101692.69;1020631;29;716;-70
2022/10/06 00:03:33;;;;;;;;;;;;;;;16.69;69.70;101697.69;1020141;29;619;-70
2022/10/06 00:04:23;;;;;;;;;;;;;;;16.65;70.43;101695.28;1020555;29;701;-70
2022/10/06 00:05:14;;;;;;;;;;;;;;;16.83;69.62;101697.50;1020527;29;728;-70
2022/10/06 00:06:04;;;;;;;;;;;;;;;16.76;69.80;101697.13;1019997;29;623;-70
2022/10/06 00:06:55;;;;;;;;;;;;;;;16.76;70.81;101702.50;1020734;29;658;-70
2022/10/06 00:07:45;;;;;;;;;;;;;;;16.90;70.11;101702.28;1020516;29;670;-70
2022/10/06 00:08:35;;;;;;;;;;;;;;;16.99;70.13;101706.09;1023817;29;1225;-70
2022/10/06 00:09:26;;;;;;;;;;;;;;;16.94;68.53;101702.91;1024403;29;682;-70
2022/10/06 00:10:16;;;;;;;;;;;;;;;16.74;67.32;101709.84;1023843;29;674;-70
2022/10/06 00:11:07;;;;;;;;;;;;;;;16.69;70.06;101711.16;1024094;29;654;-70
2022/10/06 00:11:57;;;;;;;;;;;;;;;16.76;70.75;101713.28;1024028;29;646;-70
2022/10/06 00:12:48;;;;;;;;;;;;;;;16.77;70.84;101723.06;1023729;29;650;-70
2022/10/06 00:13:39;;;;;;;;;;;;;;;16.71;68.89;101719.97;1023823;29;654;-70
2022/10/06 00:14:29;;;;;;;;;;;;;;;16.70;67.19;101716.41;1023893;29;705;-70
2022/10/06 00:15:20;;;;;;;;;;;;;;;16.65;69.25;101724.00;1023779;29;737;-70
2022/10/06 00:16:10;;;;;;;;;;;;;;;16.67;70.54;101722.03;1023556;29;600;-70
2022/10/06 00:17:01;;;;;;;;;;;;;;;16.42;67.35;101725.72;1020596;29;658;-70
2022/10/06 00:17:51;;;;;;;;;;;;;;;16.55;70.13;101728.34;1019440;29;627;-70
2022/10/06 00:18:41;;;;;;;;;;;;;;;16.55;69.23;101731.03;1022187;29;1507;-70
2022/10/06 00:19:32;;;;;;;;;;;;;;;16.50;70.61;101727.81;1024890;29;1261;-70
2022/10/06 00:20:22;;;;;;;;;;;;;;;16.42;67.05;101730.25;1025022;29;626;-70
2022/10/06 00:21:13;;;;;;;;;;;;;;;16.68;71.05;101731.81;1025047;29;658;-70
2022/10/06 00:22:03;;;;;;;;;;;;;;;16.78;69.98;101734.69;1024965;28;1973;-70
2022/10/06 00:22:53;;;;;;;;;;;;;;;16.72;68.06;101738.69;1025072;29;670;-70
2022/10/06 00:23:44;;;;;;;;;;;;;;;16.59;69.04;101735.19;1025021;29;784;-70
2022/10/06 00:24:34;;;;;;;;;;;;;;;16.65;70.61;101745.53;1024998;29;646;-70
2022/10/06 00:25:25;;;;;;;;;;;;;;;16.57;67.41;101750.59;1025015;29;789;-70
2022/10/06 00:26:15;;;;;;;;;;;;;;;16.70;70.24;101751.41;1025020;29;677;-70
2022/10/06 00:27:06;;;;;;;;;;;;;;;16.86;70.53;101757.34;1024953;29;646;-70
2022/10/06 00:27:56;;;;;;;;;;;;;;;16.77;69.23;101755.38;1024789;28;1617;-70
2022/10/06 00:28:47;;;;;;;;;;;;;;;16.64;69.79;101752.75;1024077;29;654;-70
2022/10/06 00:29:41;;;;;;;;;;;;;;;16.51;68.44;101761.81;1023919;28;694;-70
2022/10/06 00:30:31;;;;;;;;;;;;;;;16.71;70.57;101753.13;1024706;29;690;-70
2022/10/06 00:31:22;;;;;;;;;;;;;;;16.71;70.10;101758.50;1024708;29;749;-70
2022/10/06 00:32:13;;;;;;;;;;;;;;;16.85;70.01;101771.78;1025267;29;646;-70
2022/10/06 00:33:03;;;;;;;;;;;;;;;16.56;68.23;101767.72;1025146;29;666;-69
2022/10/06 00:33:54;;;;;;;;;;;;;;;16.58;69.70;101771.16;1025240;29;639;-69
2022/10/06 00:34:44;;;;;;;;;;;;;;;16.63;69.74;101777.94;1024528;29;706;-68
2022/10/06 00:35:34;;;;;;;;;;;;;;;16.69;69.66;101763.16;1025131;29;619;-69
2022/10/06 00:36:27;;;;;;;;;;;;;;;16.79;70.50;101764.19;1025124;29;721;-69
2022/10/06 00:37:17;;;;;;;;;;;;;;;16.85;69.58;101771.78;1025261;29;639;-69
2022/10/06 00:38:07;;;;;;;;;;;;;;;16.51;67.43;101778.81;1025222;29;752;-69
2022/10/06 00:38:58;;;;;;;;;;;;;;;16.60;68.20;101780.84;1025076;29;787;-69
2022/10/06 00:39:48;;;;;;;;;;;;;;;16.60;69.29;101783.53;1024643;29;664;-69
2022/10/06 00:40:39;;;;;;;;;;;;;;;16.59;68.59;101786.34;1024727;29;702;-70
2022/10/06 00:41:29;;;;;;;;;;;;;;;16.39;67.90;101782.44;1024595;29;619;-69
2022/10/06 00:42:20;;;;;;;;;;;;;;;16.58;70.68;101784.63;1024675;29;1887;-70
2022/10/06 00:43:10;;;;;;;;;;;;;;;16.61;68.17;101782.56;1024638;29;694;-70
2022/10/06 00:44:00;;;;;;;;;;;;;;;16.77;69.12;101784.97;1025166;29;694;-70
2022/10/06 00:44:51;;;;;;;;;;;;;;;16.73;70.16;101794.25;1021116;29;615;-70
2022/10/06 00:45:41;;;;;;;;;;;;;;;16.84;69.76;101796.97;1021686;29;705;-70
2022/10/06 00:46:32;;;;;;;;;;;;;;;16.81;69.11;101799.94;1021808;29;689;-70
2022/10/06 00:47:23;;;;;;;;;;;;;;;16.92;70.18;101791.88;1021319;29;673;-70
2022/10/06 00:48:13;;;;;;;;;;;;;;;16.78;68.64;101799.28;1022385;29;1383;-69
2022/10/06 00:49:04;;;;;;;;;;;;;;;16.87;70.24;101794.06;1025782;29;634;-70
2022/10/06 00:49:54;;;;;;;;;;;;;;;16.95;70.51;101812.34;1025318;28;1594;-69
2022/10/06 00:50:44;;;;;;;;;;;;;;;16.88;69.54;101809.22;1025765;29;645;-70
2022/10/06 00:51:35;;;;;;;;;;;;;;;16.62;68.09;101813.03;1025666;29;626;-69
2022/10/06 00:52:25;;;;;;;;;;;;;;;16.76;70.67;101803.94;1025713;28;673;-69
2022/10/06 00:53:16;;;;;;;;;;;;;;;16.73;68.63;101804.16;1025704;29;701;-69
2022/10/06 00:54:06;;;;;;;;;;;;;;;16.76;71.07;101804.78;1025317;29;660;-69
2022/10/06 00:54:57;;;;;;;;;;;;;;;16.82;69.82;101808.88;1024881;29;705;-69
2022/10/06 00:55:48;;;;;;;;;;;;;;;16.92;70.51;101810.72;1025056;29;634;-70
2022/10/06 00:56:39;;;;;;;;;;;;;;;16.84;70.08;101810.44;1024178;29;696;-70
2022/10/06 00:57:29;;;;;;;;;;;;;;;16.87;71.15;101812.91;1023963;29;647;-70
2022/10/06 00:58:20;;;;;;;;;;;;;;;16.82;69.37;101816.94;1025625;29;662;-69
2022/10/06 00:59:10;;;;;;;;;;;;;;;16.80;71.31;101818.88;1025612;28;542;-70
2022/10/06 01:00:00;;;;;;;;;;;;;;;16.83;70.26;101821.34;1025719;29;692;-69
2022/10/06 01:00:54;;;;;;;;;;;;;;;16.89;69.57;101816.34;1025725;28;704;-69
2022/10/06 01:01:44;;;;;;;;;;;;;;;16.90;70.82;101817.19;1025200;29;677;-69
2022/10/06 01:02:35;;;;;;;;;;;;;;;16.62;67.95;101829.16;1025590;29;716;-69
2022/10/06 01:03:26;;;;;;;;;;;;;;;16.65;68.83;101828.97;1025622;29;685;-70
2022/10/06 01:04:16;;;;;;;;;;;;;;;16.65;71.60;101828.97;1023843;29;630;-69
2022/10/06 01:05:07;;;;;;;;;;;;;;;16.83;71.18;101818.66;1024718;29;657;-70
2022/10/06 01:05:58;;;;;;;;;;;;;;;16.91;70.18;101824.31;1025660;29;709;-70
2022/10/06 01:06:48;;;;;;;;;;;;;;;16.82;69.29;101835.78;1023940;29;694;-70
2022/10/06 01:07:39;;;;;;;;;;;;;;;16.89;70.27;101831.63;1025509;29;1598;-71
2022/10/06 01:08:29;;;;;;;;;;;;;;;16.73;70.28;101840.00;1024484;29;806;-70
2022/10/06 01:09:20;;;;;;;;;;;;;;;16.70;67.88;101842.06;1024592;29;642;-71
2022/10/06 01:10:10;;;;;;;;;;;;;;;16.77;71.17;101836.13;1025662;29;626;-71
2022/10/06 01:11:01;;;;;;;;;;;;;;;16.85;71.05;101831.00;1025599;28;928;-70
2022/10/06 01:11:51;;;;;;;;;;;;;;;16.81;68.40;101839.44;1024942;29;623;-70
2022/10/06 01:12:41;;;;;;;;;;;;;;;16.89;70.55;101842.41;1025068;29;693;-71
2022/10/06 01:13:32;;;;;;;;;;;;;;;16.95;70.80;101837.41;1024430;29;661;-70
2022/10/06 01:14:23;;;;;;;;;;;;;;;17.05;70.23;101839.41;1025070;29;626;-71
2022/10/06 01:15:13;;;;;;;;;;;;;;;17.04;70.12;101849.31;1024443;29;662;-69
2022/10/06 01:16:04;;;;;;;;;;;;;;;16.90;68.46;101860.28;1024225;29;635;-68
2022/10/06 01:16:54;;;;;;;;;;;;;;;16.85;70.89;101854.38;1024524;29;705;-69
2022/10/06 01:17:45;;;;;;;;;;;;;;;16.89;70.47;101855.88;1025615;28;693;-69
2022/10/06 01:18:35;;;;;;;;;;;;;;;16.99;70.16;101855.06;1025004;29;623;-70
2022/10/06 01:19:26;;;;;;;;;;;;;;;16.98;69.62;101858.75;1024362;29;1416;-69
2022/10/06 01:20:16;;;;;;;;;;;;;;;16.65;68.31;101855.88;1025612;29;685;-69
2022/10/06 01:21:07;;;;;;;;;;;;;;;16.61;68.91;101859.75;1024531;29;690;-69
2022/10/06 01:21:57;;;;;;;;;;;;;;;16.71;71.01;101858.09;1025532;29;685;-69
2022/10/06 01:22:49;;;;;;;;;;;;;;;16.86;71.16;101856.94;1024689;29;647;-69
2022/10/06 01:23:39;;;;;;;;;;;;;;;16.86;71.25;101865.03;1024381;29;611;-69
2022/10/06 01:24:30;;;;;;;;;;;;;;;16.66;68.98;101858.44;1024956;29;642;-69
2022/10/06 01:25:20;;;;;;;;;;;;;;;16.58;68.95;101870.72;1024844;29;686;-69
2022/10/06 01:26:10;;;;;;;;;;;;;;;16.65;70.53;101866.66;1024535;29;693;-69
2022/10/06 01:27:01;;;;;;;;;;;;;;;16.79;71.00;101868.31;1025408;29;1613;-69
2022/10/06 01:27:54;;;;;;;;;;;;;;;16.66;70.29;101874.59;1023496;29;1577;-69
2022/10/06 01:28:45;;;;;;;;;;;;;;;16.84;70.71;101875.03;1025562;29;600;-69
2022/10/06 01:29:35;;;;;;;;;;;;;;;16.85;70.66;101874.06;1025503;29;697;-69
2022/10/06 01:30:25;;;;;;;;;;;;;;;16.99;70.03;101875.75;1025132;29;627;-69
2022/10/06 01:31:16;;;;;;;;;;;;;;;17.02;70.07;101876.34;1025355;29;1585;-69
2022/10/06 01:32:06;;;;;;;;;;;;;;;16.82;68.92;101874.34;1024413;29;650;-69
2022/10/06 01:32:57;;;;;;;;;;;;;;;16.94;70.81;101881.47;1025052;29;713;-70
2022/10/06 01:33:47;;;;;;;;;;;;;;;16.98;70.45;101880.28;1025576;28;631;-69
2022/10/06 01:34:38;;;;;;;;;;;;;;;16.96;70.42;101884.06;1024543;29;737;-69
2022/10/06 01:35:28;;;;;;;;;;;;;;;16.91;70.49;101884.41;1025481;29;693;-69
2022/10/06 01:36:18;;;;;;;;;;;;;;;16.87;70.54;101888.28;1021580;29;651;-70
2022/10/06 01:37:09;;;;;;;;;;;;;;;16.49;67.80;101888.41;1020386;29;737;-69
2022/10/06 01:37:59;;;;;;;;;;;;;;;16.61;71.68;101886.66;1023925;29;1586;-70
2022/10/06 01:38:50;;;;;;;;;;;;;;;16.75;70.96;101889.22;1025498;29;709;-70
2022/10/06 01:39:40;;;;;;;;;;;;;;;16.90;70.83;101885.38;1025155;29;630;-70
2022/10/06 01:40:31;;;;;;;;;;;;;;;16.98;70.67;101888.34;1024156;29;662;-70
2022/10/06 01:41:21;;;;;;;;;;;;;;;16.89;70.88;101890.88;1024447;28;713;-69
2022/10/06 01:42:11;;;;;;;;;;;;;;;16.94;71.08;101883.31;1025358;29;1976;-70
2022/10/06 01:43:02;;;;;;;;;;;;;;;17.02;70.82;101886.28;1025544;29;685;-71
2022/10/06 01:43:52;;;;;;;;;;;;;;;17.00;70.45;101888.25;1025220;29;802;-69
2022/10/06 01:44:43;;;;;;;;;;;;;;;16.83;70.63;101892.22;1021235;29;670;-69
2022/10/06 01:45:33;;;;;;;;;;;;;;;16.95;70.87;101895.81;1020513;29;1084;-69
2022/10/06 01:46:24;;;;;;;;;;;;;;;16.84;69.68;101888.50;1020481;29;690;-69
2022/10/06 01:47:14;;;;;;;;;;;;;;;16.79;70.11;101898.78;1025336;29;1700;-69
2022/10/06 01:48:04;;;;;;;;;;;;;;;16.74;71.27;101903.63;1024353;29;718;-69
2022/10/06 01:48:55;;;;;;;;;;;;;;;16.72;71.60;101900.19;1025501;28;638;-69
2022/10/06 01:49:45;;;;;;;;;;;;;;;16.75;70.50;101901.81;1025420;29;697;-69
2022/10/06 01:50:36;;;;;;;;;;;;;;;16.77;70.17;101903.41;1025448;29;677;-69
2022/10/06 01:51:26;;;;;;;;;;;;;;;16.86;71.11;101902.72;1025399;29;799;-69
2022/10/06 01:52:18;;;;;;;;;;;;;;;16.93;70.83;101905.81;1024918;29;689;-70
2022/10/06 01:53:08;;;;;;;;;;;;;;;16.90;70.54;101911.44;1024353;29;770;-70
2022/10/06 01:53:58;;;;;;;;;;;;;;;16.88;71.21;101899.91;1024418;29;686;-69
2022/10/06 01:54:49;;;;;;;;;;;;;;;16.88;71.31;101911.53;1024412;29;722;-69
2022/10/06 01:55:40;;;;;;;;;;;;;;;16.94;70.82;101908.41;1025404;29;654;-70
2022/10/06 01:56:30;;;;;;;;;;;;;;;16.92;71.22;101913.03;1024273;29;713;-69
2022/10/06 01:57:21;;;;;;;;;;;;;;;17.00;71.04;101901.72;1024934;29;725;-69
2022/10/06 01:58:11;;;;;;;;;;;;;;;17.02;70.50;101905.13;1024765;29;634;-69
2022/10/06 01:59:02;;;;;;;;;;;;;;;16.94;71.00;101907.53;1024832;29;673;-70
2022/10/06 01:59:52;;;;;;;;;;;;;;;16.95;71.07;101915.50;1025452;29;690;-70
2022/10/06 02:00:43;;;;;;;;;;;;;;;17.00;71.82;101902.56;1024256;29;635;-70
2022/10/06 02:01:34;;;;;;;;;;;;;;;16.92;71.39;101913.03;1024600;29;1593;-70
2022/10/06 02:02:25;;;;;;;;;;;;;;;16.94;71.31;101915.63;1023801;29;1961;-70
2022/10/06 02:03:15;;;;;;;;;;;;;;;16.89;68.99;101915.09;1025366;28;1589;-70
2022/10/06 02:04:05;;;;;;;;;;;;;;;16.84;71.74;101912.75;1025482;29;670;-69
2022/10/06 02:04:56;;;;;;;;;;;;;;;16.85;71.05;101917.16;1025389;29;713;-70
2022/10/06 02:05:46;;;;;;;;;;;;;;;16.83;71.57;101919.13;1025455;29;646;-70
2022/10/06 02:06:37;;;;;;;;;;;;;;;16.91;72.06;101914.00;1025434;29;794;-69
2022/10/06 02:07:27;;;;;;;;;;;;;;;16.97;71.12;101907.31;1025398;29;669;-69
2022/10/06 02:08:18;;;;;;;;;;;;;;;16.85;68.81;101914.47;1025384;29;724;-69
2022/10/06 02:09:08;;;;;;;;;;;;;;;16.81;71.52;101918.38;1025372;28;727;-69
2022/10/06 02:09:58;;;;;;;;;;;;;;;16.84;71.30;101915.44;1025366;29;615;-69
2022/10/06 02:10:49;;;;;;;;;;;;;;;16.80;69.99;101926.56;1025441;28;647;-69
2022/10/06 02:11:39;;;;;;;;;;;;;;;16.57;68.73;101923.69;1025428;29;639;-70
2022/10/06 02:12:30;;;;;;;;;;;;;;;16.56;71.42;101923.81;1025404;29;686;-70
2022/10/06 02:13:22;;;;;;;;;;;;;;;16.48;69.69;101926.19;1023815;29;729;-70
2022/10/06 02:14:12;;;;;;;;;;;;;;;16.64;71.53;101925.00;1024297;29;686;-70
2022/10/06 02:15:02;;;;;;;;;;;;;;;16.81;71.58;101931.84;1025359;29;670;-69
2022/10/06 02:15:53;;;;;;;;;;;;;;;16.65;69.79;101926.72;1025381;29;662;-69
2022/10/06 02:16:43;;;;;;;;;;;;;;;16.82;71.22;101938.94;1025333;29;611;-70
2022/10/06 02:17:34;;;;;;;;;;;;;;;16.80;70.99;101927.44;1025357;29;641;-70
2022/10/06 02:18:24;;;;;;;;;;;;;;;16.90;70.87;101925.75;1025328;29;916;-69
2022/10/06 02:19:15;;;;;;;;;;;;;;;16.98;70.65;101933.28;1025138;29;1240;-70
2022/10/06 02:20:05;;;;;;;;;;;;;;;16.66;67.35;101924.88;1025417;29;988;-71
2022/10/06 02:20:56;;;;;;;;;;;;;;;16.77;71.20;101930.34;1025492;29;626;-70
2022/10/06 02:21:46;;;;;;;;;;;;;;;16.87;71.00;101930.50;1025316;29;622;-70
2022/10/06 02:22:37;;;;;;;;;;;;;;;16.74;70.67;101935.94;1025356;29;574;-70
2022/10/06 02:23:27;;;;;;;;;;;;;;;16.85;71.19;101930.63;1021408;29;713;-70
2022/10/06 02:24:17;;;;;;;;;;;;;;;16.89;71.35;101940.19;1020220;29;637;-70
2022/10/06 02:25:08;;;;;;;;;;;;;;;16.88;71.25;101937.59;1025000;29;721;-70
2022/10/06 02:25:58;;;;;;;;;;;;;;;16.77;69.76;101941.09;1025000;29;709;-70
2022/10/06 02:26:49;;;;;;;;;;;;;;;16.88;71.27;101940.31;1021503;29;647;-70
2022/10/06 02:27:39;;;;;;;;;;;;;;;16.77;69.94;101946.50;1020116;29;619;-70
2022/10/06 02:28:30;;;;;;;;;;;;;;;16.61;69.92;101948.56;1019885;29;880;-70
2022/10/06 02:29:20;;;;;;;;;;;;;;;16.72;71.83;101954.03;1025000;29;728;-70
2022/10/06 02:30:13;;;;;;;;;;;;;;;16.77;69.24;101951.88;1025009;29;646;-70
2022/10/06 02:31:03;;;;;;;;;;;;;;;16.80;71.48;101950.78;1021411;29;767;-70
2022/10/06 02:31:54;;;;;;;;;;;;;;;16.92;71.71;101952.56;1025120;29;650;-70
2022/10/06 02:32:45;;;;;;;;;;;;;;;16.85;70.71;101953.97;1025074;29;678;-69
2022/10/06 02:33:35;;;;;;;;;;;;;;;16.86;71.37;101951.19;1024889;29;1590;-70
2022/10/06 02:34:25;;;;;;;;;;;;;;;16.72;69.91;101959.41;1024341;29;666;-70
2022/10/06 02:35:16;;;;;;;;;;;;;;;16.84;71.19;101953.13;1020432;29;658;-70
2022/10/06 02:36:06;;;;;;;;;;;;;;;16.86;71.32;101951.19;1020677;29;792;-69
2022/10/06 02:36:57;;;;;;;;;;;;;;;16.86;71.66;101959.25;1020786;29;715;-69
2022/10/06 02:37:47;;;;;;;;;;;;;;;16.91;70.53;101962.47;1020832;29;804;-69
2022/10/06 02:38:38;;;;;;;;;;;;;;;16.89;71.38;101956.34;1020860;29;657;-69
2022/10/06 02:39:28;;;;;;;;;;;;;;;16.93;70.69;101963.22;1020766;29;622;-69
2022/10/06 02:40:19;;;;;;;;;;;;;;;16.98;71.50;101957.50;1020194;29;642;-69
2022/10/06 02:41:09;;;;;;;;;;;;;;;17.00;71.23;101964.50;1020623;29;701;-69
2022/10/06 02:42:00;;;;;;;;;;;;;;;17.02;70.96;101957.16;1020384;29;713;-69
2022/10/06 02:42:50;;;;;;;;;;;;;;;17.04;70.49;101965.13;1022613;29;1653;-69
2022/10/06 02:43:41;;;;;;;;;;;;;;;17.03;70.79;101963.41;1025307;28;645;-69
2022/10/06 02:44:31;;;;;;;;;;;;;;;17.04;71.57;101972.34;1025132;29;1170;-69
2022/10/06 02:45:22;;;;;;;;;;;;;;;17.05;70.93;101971.38;1024161;29;685;-69
2022/10/06 02:46:12;;;;;;;;;;;;;;;17.05;71.11;101971.38;1024313;29;634;-69
2022/10/06 02:47:02;;;;;;;;;;;;;;;17.05;70.57;101979.44;1024099;29;690;-69
2022/10/06 02:47:53;;;;;;;;;;;;;;;17.04;70.98;101977.72;1024265;29;725;-69
2022/10/06 02:48:43;;;;;;;;;;;;;;;17.07;71.44;101977.50;1024086;29;648;-69
2022/10/06 02:49:34;;;;;;;;;;;;;;;16.98;71.72;101977.22;1024216;29;639;-70
2022/10/06 02:50:24;;;;;;;;;;;;;;;16.94;70.57;101980.25;1024032;29;673;-69
2022/10/06 02:51:15;;;;;;;;;;;;;;;16.96;71.33;101984.56;1024238;29;732;-69
2022/10/06 02:52:07;;;;;;;;;;;;;;;16.93;70.55;101979.38;1024252;29;670;-71
2022/10/06 02:52:58;;;;;;;;;;;;;;;16.98;71.48;101998.78;1024013;28;861;-69
2022/10/06 02:53:48;;;;;;;;;;;;;;;17.02;71.17;101990.47;1024267;29;642;-69
2022/10/06 02:54:38;;;;;;;;;;;;;;;17.04;71.50;101996.56;1024071;29;646;-70
2022/10/06 02:55:30;;;;;;;;;;;;;;;17.02;71.39;101995.84;1024168;29;678;-69
2022/10/06 02:56:21;;;;;;;;;;;;;;;16.99;71.59;101992.41;1023829;29;721;-69
2022/10/06 02:57:11;;;;;;;;;;;;;;;16.95;71.38;101999.00;1024254;29;630;-69
2022/10/06 02:58:02;;;;;;;;;;;;;;;16.94;71.60;101996.41;1024090;29;671;-70
2022/10/06 02:58:52;;;;;;;;;;;;;;;17.00;71.17;101999.53;1023556;29;639;-70
2022/10/06 02:59:43;;;;;;;;;;;;;;;17.00;71.44;101996.81;1025268;29;698;-69
2022/10/06 03:00:33;;;;;;;;;;;;;;;16.99;71.20;101999.63;1023526;29;741;-69
2022/10/06 03:01:24;;;;;;;;;;;;;;;16.99;71.26;102005.03;1024213;29;713;-69
2022/10/06 03:02:14;;;;;;;;;;;;;;;17.02;71.00;101998.56;1024004;29;1898;-69
2022/10/06 03:03:05;;;;;;;;;;;;;;;17.02;71.07;102000.25;1020793;29;655;-70
2022/10/06 03:03:55;;;;;;;;;;;;;;;17.01;71.55;102005.78;1020758;29;722;-70
2022/10/06 03:04:46;;;;;;;;;;;;;;;17.01;71.37;102003.06;1020783;29;710;-70
2022/10/06 03:05:36;;;;;;;;;;;;;;;16.98;71.38;102004.16;1020023;29;670;-72
2022/10/06 03:06:27;;;;;;;;;;;;;;;17.02;71.08;102006.63;1020149;29;705;-70
2022/10/06 03:07:17;;;;;;;;;;;;;;;17.02;71.78;102008.31;1020307;29;660;-70
2022/10/06 03:08:08;;;;;;;;;;;;;;;17.05;71.92;102009.06;1021286;29;767;-70
2022/10/06 03:08:58;;;;;;;;;;;;;;;16.85;71.79;102006.00;1020303;29;686;-70
2022/10/06 03:09:48;;;;;;;;;;;;;;;16.88;72.30;102016.56;1020126;29;694;-70
2022/10/06 03:10:39;;;;;;;;;;;;;;;16.97;71.50;102015.03;1020203;29;639;-71
2022/10/06 03:11:29;;;;;;;;;;;;;;;16.98;71.46;102019.44;1021181;29;611;-70
2022/10/06 03:12:20;;;;;;;;;;;;;;;16.96;71.54;102022.25;1020162;29;734;-69
2022/10/06 03:13:10;;;;;;;;;;;;;;;16.89;70.87;102020.09;1019996;29;627;-69
2022/10/06 03:14:01;;;;;;;;;;;;;;;16.92;71.88;102022.59;1020150;29;634;-69
2022/10/06 03:14:51;;;;;;;;;;;;;;;16.96;71.46;102022.25;1020298;29;734;-70
2022/10/06 03:15:42;;;;;;;;;;;;;;;17.00;71.87;102028.28;1021117;29;695;-69
2022/10/06 03:16:32;;;;;;;;;;;;;;;16.91;70.63;102035.19;1020004;29;691;-69
2022/10/06 03:17:23;;;;;;;;;;;;;;;16.96;71.89;102022.25;1020113;29;705;-70
2022/10/06 03:18:13;;;;;;;;;;;;;;;17.00;71.68;102026.44;1020254;29;694;-69
2022/10/06 03:19:03;;;;;;;;;;;;;;;17.04;70.96;102031.59;1020022;29;650;-70
2022/10/06 03:19:58;;;;;;;;;;;;;;;16.99;71.77;102022.03;1020159;29;1179;-70
2022/10/06 03:20:48;;;;;;;;;;;;;;;16.92;71.26;102028.81;1021189;29;657;-69
2022/10/06 03:21:38;;;;;;;;;;;;;;;16.96;71.60;102032.16;1020089;29;655;-70
2022/10/06 03:22:29;;;;;;;;;;;;;;;16.97;71.53;102032.06;1023546;29;1910;-70
2022/10/06 03:23:19;;;;;;;;;;;;;;;16.94;71.38;102043.03;1023949;29;788;-70
2022/10/06 03:24:10;;;;;;;;;;;;;;;16.91;72.37;102034.31;1024021;29;631;-70
2022/10/06 03:25:00;;;;;;;;;;;;;;;16.95;72.07;102039.38;1023893;29;634;-70
2022/10/06 03:25:51;;;;;;;;;;;;;;;16.97;71.93;102044.66;1023653;29;635;-70
2022/10/06 03:26:41;;;;;;;;;;;;;;;16.99;72.06;102040.03;1023623;29;659;-70
2022/10/06 03:27:32;;;;;;;;;;;;;;;17.00;71.67;102037.22;1024074;29;650;-70
2022/10/06 03:28:22;;;;;;;;;;;;;;;17.00;72.08;102029.16;1023902;29;701;-70
2022/10/06 03:29:14;;;;;;;;;;;;;;;17.01;71.58;102038.09;1024183;29;662;-70
2022/10/06 03:30:05;;;;;;;;;;;;;;;17.04;71.69;102042.34;1023626;29;650;-70
2022/10/06 03:30:55;;;;;;;;;;;;;;;17.05;71.57;102044.09;1023929;29;635;-70
2022/10/06 03:31:46;;;;;;;;;;;;;;;17.08;71.87;102047.41;1024099;29;729;-70
2022/10/06 03:32:37;;;;;;;;;;;;;;;17.05;71.41;102046.78;1023906;29;631;-70
2022/10/06 03:33:27;;;;;;;;;;;;;;;17.04;71.54;102045.91;1023734;29;655;-70
2022/10/06 03:34:17;;;;;;;;;;;;;;;17.05;71.68;102047.63;1023901;29;752;-70
2022/10/06 03:35:08;;;;;;;;;;;;;;;17.00;72.00;102058.78;1024154;29;642;-70
2022/10/06 03:35:58;;;;;;;;;;;;;;;17.00;71.81;102057.91;1023934;29;627;-70
2022/10/06 03:36:49;;;;;;;;;;;;;;;17.01;71.96;102059.63;1024059;29;674;-70
2022/10/06 03:37:39;;;;;;;;;;;;;;;17.03;71.45;102049.56;1023966;29;789;-70
2022/10/06 03:38:30;;;;;;;;;;;;;;;17.05;71.20;102062.94;1025083;29;613;-70
2022/10/06 03:39:20;;;;;;;;;;;;;;;17.03;71.60;102063.03;1024050;29;695;-70
2022/10/06 03:40:13;;;;;;;;;;;;;;;17.06;71.17;102065.53;1024297;29;1166;-70
2022/10/06 03:41:04;;;;;;;;;;;;;;;17.02;71.65;102064.88;1023041;29;654;-71
2022/10/06 03:41:54;;;;;;;;;;;;;;;17.05;70.99;102060.25;1023940;29;1641;-70
2022/10/06 03:42:44;;;;;;;;;;;;;;;17.06;71.11;102070.03;1024440;29;698;-70
2022/10/06 03:43:35;;;;;;;;;;;;;;;17.05;71.77;102066.50;1025072;28;642;-70
2022/10/06 03:44:25;;;;;;;;;;;;;;;17.05;71.86;102071.00;1024383;29;1034;-69
2022/10/06 03:45:16;;;;;;;;;;;;;;;17.02;71.16;102076.66;1024023;29;694;-69
2022/10/06 03:46:06;;;;;;;;;;;;;;;17.01;72.14;102073.09;1023860;29;635;-69
2022/10/06 03:46:57;;;;;;;;;;;;;;;17.02;72.04;102081.03;1023947;29;666;-69
2022/10/06 03:47:47;;;;;;;;;;;;;;;17.05;71.80;102077.25;1024086;29;655;-69
2022/10/06 03:48:37;;;;;;;;;;;;;;;17.08;71.70;102073.50;1023932;29;627;-69
2022/10/06 03:49:28;;;;;;;;;;;;;;;17.03;71.08;102073.81;1023974;29;784;-69
2022/10/06 03:50:18;;;;;;;;;;;;;;;17.01;71.85;102070.41;1023916;29;651;-69
2022/10/06 03:51:09;;;;;;;;;;;;;;;17.02;71.55;102080.16;1023925;29;639;-69
2022/10/06 03:51:59;;;;;;;;;;;;;;;16.96;71.57;102081.50;1024105;29;733;-69
2022/10/06 03:52:51;;;;;;;;;;;;;;;16.94;72.33;102078.06;1023924;29;646;-69
2022/10/06 03:53:42;;;;;;;;;;;;;;;16.99;71.41;102086.66;1023319;29;635;-69
2022/10/06 03:54:32;;;;;;;;;;;;;;;16.99;71.11;102089.38;1024102;29;666;-69
2022/10/06 03:55:22;;;;;;;;;;;;;;;16.93;71.18;102088.94;1023452;29;623;-69
2022/10/06 03:56:13;;;;;;;;;;;;;;;16.94;72.37;102093.34;1023995;29;623;-70
2022/10/06 03:57:03;;;;;;;;;;;;;;;16.97;71.61;102094.00;1023848;29;710;-69
2022/10/06 03:57:56;;;;;;;;;;;;;;;16.99;71.39;102093.88;1024028;29;693;-70
2022/10/06 03:58:46;;;;;;;;;;;;;;;16.80;68.91;102096.16;1023608;29;718;-71
2022/10/06 03:59:36;;;;;;;;;;;;;;;16.84;71.68;102097.69;1023868;29;635;-70
2022/10/06 04:00:27;;;;;;;;;;;;;;;16.91;71.99;102101.63;1024015;29;718;-70
2022/10/06 04:01:18;;;;;;;;;;;;;;;16.96;71.62;102107.56;1023575;29;718;-70
2022/10/06 04:02:10;;;;;;;;;;;;;;;16.94;71.72;102102.28;1023822;29;770;-70
2022/10/06 04:03:00;;;;;;;;;;;;;;;16.92;71.26;102106.06;1024102;29;679;-70
2022/10/06 04:03:51;;;;;;;;;;;;;;;16.97;71.27;102102.06;1023457;29;650;-70
2022/10/06 04:04:41;;;;;;;;;;;;;;;16.96;71.34;102107.56;1024165;29;651;-70
2022/10/06 04:05:32;;;;;;;;;;;;;;;16.96;71.55;102103.03;1024588;29;1228;-70
2022/10/06 04:06:22;;;;;;;;;;;;;;;16.94;70.30;102099.59;1025935;29;885;-70
2022/10/06 04:07:12;;;;;;;;;;;;;;;16.98;71.06;102101.09;1025927;29;673;-70
2022/10/06 04:08:03;;;;;;;;;;;;;;;16.90;71.48;102103.47;1025343;29;674;-70
2022/10/06 04:08:53;;;;;;;;;;;;;;;16.93;71.74;102108.63;1025238;29;677;-70
2022/10/06 04:09:44;;;;;;;;;;;;;;;16.96;71.67;102108.44;1025840;29;618;-70
2022/10/06 04:10:34;;;;;;;;;;;;;;;16.99;71.62;102110.03;1025285;29;606;-70
2022/10/06 04:11:25;;;;;;;;;;;;;;;17.00;71.80;102114.47;1025357;29;706;-70
2022/10/06 04:12:15;;;;;;;;;;;;;;;16.99;71.33;102116.28;1025528;29;1601;-70
2022/10/06 04:13:06;;;;;;;;;;;;;;;16.97;70.93;102115.53;1025850;29;638;-70
2022/10/06 04:13:57;;;;;;;;;;;;;;;16.98;71.85;102116.41;1025818;29;722;-70
2022/10/06 04:14:48;;;;;;;;;;;;;;;16.98;72.07;102122.66;1024822;29;690;-70
2022/10/06 04:15:39;;;;;;;;;;;;;;;16.94;71.33;102115.75;1024100;29;671;-71
2022/10/06 04:16:29;;;;;;;;;;;;;;;16.80;70.74;102120.41;1025801;29;682;-69
2022/10/06 04:17:20;;;;;;;;;;;;;;;16.88;71.93;102118.00;1024266;29;711;-69
2022/10/06 04:18:11;;;;;;;;;;;;;;;16.86;71.26;102117.25;1025782;29;705;-69
2022/10/06 04:19:01;;;;;;;;;;;;;;;16.87;71.51;102124.38;1024452;29;623;-70
2022/10/06 04:19:52;;;;;;;;;;;;;;;16.75;71.26;102126.09;1025787;29;702;-69
2022/10/06 04:20:42;;;;;;;;;;;;;;;16.69;72.34;102122.97;1025730;29;634;-70
2022/10/06 04:21:32;;;;;;;;;;;;;;;16.81;71.59;102124.81;1025797;29;693;-69
2022/10/06 04:22:23;;;;;;;;;;;;;;;16.77;71.55;102118.78;1025627;29;1974;-69
2022/10/06 04:23:15;;;;;;;;;;;;;;;16.80;70.26;102123.09;1025795;29;772;-70
2022/10/06 04:24:05;;;;;;;;;;;;;;;16.88;71.45;102121.56;1024767;29;697;-69
2022/10/06 04:24:55;;;;;;;;;;;;;;;16.93;71.54;102127.50;1025982;28;642;-71
2022/10/06 04:25:46;;;;;;;;;;;;;;;16.94;71.57;102131.03;1025837;29;690;-70